Time;durP1;ratioP1;P1;durP2;ratioP2;P2;SDS_P1;SDS_P2;PMS_P1;PMS_P2;Temp;Humidity;BMP_temperature;BMP_pressure;BME280_temperature;BME280_humidity;BME280_pressure;Samples;Min_cycle;Max_cycle;Signal;HPM_P1;HPM_P2
2023/09/19 00:01:08;;;;;;;;;;;23.00;75.30;;;;;;5122630;28;19915;-46
2023/09/19 00:03:37;;;;;;;;;;;23.00;75.20;;;;;;5123273;28;20288;-47
2023/09/19 00:06:04;;;;;;;;;;;23.00;75.30;;;;;;5122291;28;19916;-46
2023/09/19 00:08:30;;;;;;;;;;;23.00;75.20;;;;;;5124598;28;19983;-46
2023/09/19 00:11:04;;;;;;;;;;;23.00;75.00;;;;;;5122972;27;19908;-46
2023/09/19 00:13:30;;;;;;;;;;;23.00;75.00;;;;;;5124481;28;20392;-46
2023/09/19 00:15:58;;;;;;;;;;;23.00;75.00;;;;;;5123244;28;19908;-46
2023/09/19 00:18:28;;;;;;;;;;;23.00;74.90;;;;;;5124627;28;19926;-47
2023/09/19 00:20:57;;;;;;;;;;;23.00;75.00;;;;;;5124157;28;19918;-48
2023/09/19 00:23:24;;;;;;;;;;;23.00;75.10;;;;;;5124121;28;19914;-46
2023/09/19 00:25:51;;;;;;;;;;;23.00;75.10;;;;;;5123661;28;19911;-46
2023/09/19 00:28:18;;;;;;;;;;;23.00;75.60;;;;;;5124302;28;19987;-46
2023/09/19 00:30:44;;;;;;;;;;;23.00;75.80;;;;;;5123793;27;19912;-43
2023/09/19 00:33:11;;;;;;;;;;;23.00;75.70;;;;;;5123853;28;19911;-45
2023/09/19 00:35:37;;;;;;;;;;;23.00;75.90;;;;;;5123415;28;19912;-47
2023/09/19 00:38:03;;;;;;;;;;;23.00;75.70;;;;;;5123376;28;19922;-47
2023/09/19 00:40:30;;;;;;;;;;;23.00;75.30;;;;;;5123989;28;19911;-46
2023/09/19 00:43:00;;;;;;;;;;;23.00;75.20;;;;;;5123561;28;20018;-46
2023/09/19 00:45:25;;;;;;;;;;;22.90;75.10;;;;;;5123775;28;19915;-46
2023/09/19 00:47:51;;;;;;;;;;;22.90;75.00;;;;;;5121730;28;19919;-46
2023/09/19 00:50:18;;;;;;;;;;;22.90;75.00;;;;;;5123523;28;19907;-46
2023/09/19 00:52:44;;;;;;;;;;;22.90;75.00;;;;;;5122720;28;19922;-45
2023/09/19 00:55:10;;;;;;;;;;;22.90;74.80;;;;;;5137880;27;19966;-48
2023/09/19 00:57:38;;;;;;;;;;;22.90;74.90;;;;;;5123393;28;19916;-45
2023/09/19 01:00:05;;;;;;;;;;;22.90;75.10;;;;;;5122920;28;19976;-46
2023/09/19 01:02:32;;;;;;;;;;;22.90;75.20;;;;;;5122254;28;19907;-46
2023/09/19 01:04:58;;;;;;;;;;;22.90;75.10;;;;;;5122840;28;19918;-45
2023/09/19 01:07:24;;;;;;;;;;;22.90;75.30;;;;;;5123061;28;20034;-46
2023/09/19 01:09:51;;;;;;;;;;;22.90;75.40;;;;;;5123015;28;19979;-48
2023/09/19 01:12:17;;;;;;;;;;;22.90;75.60;;;;;;5119349;28;19942;-46
2023/09/19 01:14:57;;;;;;;;;;;22.90;75.40;;;;;;5121869;28;19911;-46
2023/09/19 01:17:30;;;;;;;;;;;22.90;75.30;;;;;;5109952;28;19914;-46
2023/09/19 01:20:11;;;;;;;;;;;22.90;75.20;;;;;;5121514;28;19929;-46
2023/09/19 01:22:39;;;;;;;;;;;22.90;75.20;;;;;;5120501;28;20400;-47
2023/09/19 01:25:23;;;;;;;;;;;22.90;75.20;;;;;;5122744;28;19935;-48
2023/09/19 01:27:58;;;;;;;;;;;22.80;75.80;;;;;;5120062;28;19955;-51
2023/09/19 01:30:24;;;;;;;;;;;22.90;75.20;;;;;;5116936;28;20392;-47
2023/09/19 01:32:52;;;;;;;;;;;22.80;75.20;;;;;;5123141;28;20276;-47
2023/09/19 01:35:18;;;;;;;;;;;22.80;75.30;;;;;;5123196;28;19912;-47
2023/09/19 01:37:44;;;;;;;;;;;22.80;75.20;;;;;;5123241;28;19943;-48
2023/09/19 01:40:11;;;;;;;;;;;22.80;75.30;;;;;;5123350;28;19912;-47
2023/09/19 01:42:57;;;;;;;;;;;22.80;75.30;;;;;;5122068;28;19908;-48
2023/09/19 01:45:35;;;;;;;;;;;22.80;75.30;;;;;;5118008;28;19912;-47
2023/09/19 01:48:21;;;;;;;;;;;22.80;75.40;;;;;;5125927;28;19923;-48
2023/09/19 01:51:03;;;;;;;;;;;22.80;75.40;;;;;;5122230;27;19912;-47
2023/09/19 01:53:43;;;;;;;;;;;22.80;75.40;;;;;;5120834;27;19935;-47
2023/09/19 01:56:12;;;;;;;;;;;22.80;75.40;;;;;;5126360;28;19973;-47
2023/09/19 01:58:45;;;;;;;;;;;22.80;75.30;;;;;;5119149;28;19908;-47
2023/09/19 02:01:13;;;;;;;;;;;22.70;75.40;;;;;;5126517;28;19907;-47
2023/09/19 02:03:39;;;;;;;;;;;22.70;75.30;;;;;;5118449;28;20625;-46
2023/09/19 02:06:05;;;;;;;;;;;22.70;75.30;;;;;;5126449;28;19950;-46
2023/09/19 02:08:33;;;;;;;;;;;22.70;75.40;;;;;;5126887;27;19970;-45
2023/09/19 02:10:59;;;;;;;;;;;22.70;75.40;;;;;;5126580;28;19912;-45
2023/09/19 02:13:27;;;;;;;;;;;22.70;75.40;;;;;;5126582;27;19934;-47
2023/09/19 02:15:55;;;;;;;;;;;22.70;75.50;;;;;;5124741;27;19908;-45
2023/09/19 02:18:21;;;;;;;;;;;22.70;75.60;;;;;;5126190;28;19934;-45
2023/09/19 02:20:47;;;;;;;;;;;22.70;75.70;;;;;;5125715;28;19908;-46
2023/09/19 02:23:13;;;;;;;;;;;22.70;75.80;;;;;;5126248;28;20271;-47
2023/09/19 02:25:40;;;;;;;;;;;22.60;75.70;;;;;;5126239;28;19965;-45
2023/09/19 02:28:09;;;;;;;;;;;22.60;75.70;;;;;;5126486;28;19986;-46
2023/09/19 02:30:36;;;;;;;;;;;22.60;75.80;;;;;;5158922;27;19969;-45
2023/09/19 02:33:01;;;;;;;;;;;22.60;75.70;;;;;;5125431;28;19950;-45
2023/09/19 02:35:28;;;;;;;;;;;22.60;75.70;;;;;;5121238;28;19912;-45
2023/09/19 02:37:54;;;;;;;;;;;22.60;75.70;;;;;;5125542;27;19971;-45
2023/09/19 02:40:19;;;;;;;;;;;22.60;75.70;;;;;;5126379;28;19907;-45
2023/09/19 02:42:51;;;;;;;;;;;22.60;75.70;;;;;;5118972;28;19912;-45
2023/09/19 02:45:17;;;;;;;;;;;22.60;75.70;;;;;;5118697;28;19908;-45
2023/09/19 02:47:44;;;;;;;;;;;22.60;75.70;;;;;;5125371;28;19916;-45
2023/09/19 02:50:13;;;;;;;;;;;22.50;75.60;;;;;;5123808;28;19918;-46
2023/09/19 02:52:43;;;;;;;;;;;22.50;75.90;;;;;;5113468;28;19916;-46
2023/09/19 02:55:09;;;;;;;;;;;22.50;75.80;;;;;;5124175;27;19984;-45
2023/09/19 02:57:40;;;;;;;;;;;22.50;76.80;;;;;;5125504;28;19962;-45
2023/09/19 03:00:12;;;;;;;;;;;22.50;76.10;;;;;;5125344;28;19912;-46
2023/09/19 03:02:39;;;;;;;;;;;22.50;76.10;;;;;;5125600;28;19911;-45
2023/09/19 03:05:05;;;;;;;;;;;22.50;76.10;;;;;;5125251;28;19933;-45
2023/09/19 03:07:31;;;;;;;;;;;22.50;76.20;;;;;;5118354;28;19916;-45
2023/09/19 03:09:57;;;;;;;;;;;22.40;75.90;;;;;;5116078;28;19934;-46
2023/09/19 03:12:23;;;;;;;;;;;22.50;75.90;;;;;;5120912;28;19908;-46
2023/09/19 03:14:50;;;;;;;;;;;22.40;75.80;;;;;;5121495;28;19918;-46
2023/09/19 03:17:16;;;;;;;;;;;22.40;75.90;;;;;;5125274;28;19943;-46
2023/09/19 03:19:42;;;;;;;;;;;22.40;75.90;;;;;;5125048;28;20382;-45
2023/09/19 03:22:08;;;;;;;;;;;22.40;75.90;;;;;;5124765;28;20280;-45
2023/09/19 03:24:35;;;;;;;;;;;22.40;75.90;;;;;;5125378;28;19923;-46
2023/09/19 03:27:01;;;;;;;;;;;22.40;76.00;;;;;;5124011;28;19958;-46
2023/09/19 03:29:27;;;;;;;;;;;22.40;76.00;;;;;;5124050;28;20338;-45
2023/09/19 03:31:54;;;;;;;;;;;22.30;76.10;;;;;;5122496;28;19907;-45
2023/09/19 03:34:20;;;;;;;;;;;22.30;76.20;;;;;;5123199;27;19907;-45
2023/09/19 03:36:46;;;;;;;;;;;22.30;76.20;;;;;;5124294;28;19928;-46
2023/09/19 03:39:14;;;;;;;;;;;22.30;76.30;;;;;;5125131;28;19955;-46
2023/09/19 03:41:40;;;;;;;;;;;22.30;76.30;;;;;;5124761;28;19908;-46
2023/09/19 03:44:06;;;;;;;;;;;22.30;76.40;;;;;;5124056;28;19911;-46
2023/09/19 03:46:32;;;;;;;;;;;22.30;76.30;;;;;;5124826;28;19933;-47
2023/09/19 03:48:58;;;;;;;;;;;22.30;76.30;;;;;;5124728;28;19957;-46
2023/09/19 03:51:24;;;;;;;;;;;22.20;76.20;;;;;;5124725;28;19937;-46
2023/09/19 03:53:50;;;;;;;;;;;22.30;76.40;;;;;;5123255;28;20407;-47
2023/09/19 03:56:16;;;;;;;;;;;22.30;76.40;;;;;;5116726;28;19916;-45
2023/09/19 03:58:42;;;;;;;;;;;22.20;76.30;;;;;;5117576;28;19911;-45
2023/09/19 04:01:08;;;;;;;;;;;22.20;76.40;;;;;;5121316;28;19911;-46
2023/09/19 04:03:47;;;;;;;;;;;22.20;76.40;;;;;;5115166;28;19911;-45
2023/09/19 04:06:16;;;;;;;;;;;22.20;76.40;;;;;;5124295;27;19914;-45
2023/09/19 04:08:42;;;;;;;;;;;22.20;76.40;;;;;;5115751;28;19911;-45
2023/09/19 04:11:08;;;;;;;;;;;22.20;76.50;;;;;;5122063;28;20345;-46
2023/09/19 04:13:34;;;;;;;;;;;22.20;76.50;;;;;;5124511;28;19915;-45
2023/09/19 04:16:00;;;;;;;;;;;22.10;76.40;;;;;;5123126;28;19911;-45
2023/09/19 04:18:26;;;;;;;;;;;22.20;76.50;;;;;;5118690;28;19915;-45
2023/09/19 04:20:52;;;;;;;;;;;22.10;76.40;;;;;;5120847;28;19929;-46
2023/09/19 04:23:21;;;;;;;;;;;22.10;76.40;;;;;;5123365;28;20443;-46
2023/09/19 04:25:48;;;;;;;;;;;22.10;76.50;;;;;;5123453;28;19909;-45
2023/09/19 04:28:13;;;;;;;;;;;22.10;76.50;;;;;;5120691;28;19919;-45
2023/09/19 04:30:42;;;;;;;;;;;22.10;76.50;;;;;;5113422;28;19983;-45
2023/09/19 04:33:08;;;;;;;;;;;22.10;76.60;;;;;;5123763;28;19908;-46
2023/09/19 04:35:34;;;;;;;;;;;22.10;76.60;;;;;;5123768;28;19922;-46
2023/09/19 04:38:00;;;;;;;;;;;22.10;76.60;;;;;;5115688;28;19912;-46
2023/09/19 04:40:26;;;;;;;;;;;22.00;76.50;;;;;;5123011;28;19977;-45
2023/09/19 04:42:56;;;;;;;;;;;22.00;76.70;;;;;;5121180;28;19934;-45
2023/09/19 04:45:22;;;;;;;;;;;22.00;76.60;;;;;;5122949;28;19908;-45
2023/09/19 04:47:48;;;;;;;;;;;22.00;76.50;;;;;;5122498;28;19964;-45
2023/09/19 04:50:14;;;;;;;;;;;22.00;76.50;;;;;;5123370;28;19912;-45
2023/09/19 04:52:42;;;;;;;;;;;22.00;76.60;;;;;;5123148;28;19915;-45
2023/09/19 04:55:13;;;;;;;;;;;22.00;76.60;;;;;;5122360;28;19934;-46
2023/09/19 04:57:39;;;;;;;;;;;21.90;76.50;;;;;;5123582;28;19919;-44
2023/09/19 05:00:12;;;;;;;;;;;21.90;76.70;;;;;;5122603;28;19919;-45
2023/09/19 05:02:38;;;;;;;;;;;21.90;76.60;;;;;;5121479;28;19914;-46
2023/09/19 05:05:04;;;;;;;;;;;21.90;76.60;;;;;;5122679;28;20650;-47
2023/09/19 05:07:30;;;;;;;;;;;21.90;76.70;;;;;;5121865;28;19920;-45
2023/09/19 05:09:56;;;;;;;;;;;21.90;76.70;;;;;;5122496;28;19907;-45
2023/09/19 05:12:22;;;;;;;;;;;21.90;76.80;;;;;;5123133;28;19984;-44
2023/09/19 05:19:40;;;;;;;;;;;21.90;76.80;;;;;;5118155;28;19972;-44
2023/09/19 05:22:06;;;;;;;;;;;21.80;76.70;;;;;;5126001;28;19912;-45
2023/09/19 05:24:32;;;;;;;;;;;21.80;76.70;;;;;;5126619;28;19912;-45
2023/09/19 05:26:59;;;;;;;;;;;21.80;76.70;;;;;;5126181;28;20356;-45
2023/09/19 05:29:25;;;;;;;;;;;21.80;76.70;;;;;;5128047;28;19919;-46
2023/09/19 05:31:51;;;;;;;;;;;21.80;76.70;;;;;;5126790;28;19911;-46
2023/09/19 05:34:16;;;;;;;;;;;21.80;76.80;;;;;;5127992;27;19907;-46
2023/09/19 05:36:43;;;;;;;;;;;21.80;77.50;;;;;;5118964;27;19998;-45
2023/09/19 05:39:09;;;;;;;;;;;21.80;76.90;;;;;;5125744;27;19915;-47
2023/09/19 05:41:39;;;;;;;;;;;21.80;76.90;;;;;;5126920;28;19912;-46
2023/09/19 05:44:06;;;;;;;;;;;21.70;76.80;;;;;;5127043;27;19916;-45
2023/09/19 05:46:32;;;;;;;;;;;21.70;76.90;;;;;;5127300;27;19911;-45
2023/09/19 05:48:58;;;;;;;;;;;21.70;76.80;;;;;;5126923;28;19908;-44
2023/09/19 05:51:25;;;;;;;;;;;21.70;76.90;;;;;;5127230;28;19946;-44
2023/09/19 05:53:52;;;;;;;;;;;21.70;76.90;;;;;;5126851;28;19914;-44
2023/09/19 05:56:18;;;;;;;;;;;21.70;76.90;;;;;;5126373;28;19919;-44
2023/09/19 05:58:44;;;;;;;;;;;21.70;76.90;;;;;;5127147;28;19915;-46
2023/09/19 06:01:10;;;;;;;;;;;21.70;76.90;;;;;;5125994;28;19950;-44
2023/09/19 06:03:36;;;;;;;;;;;21.70;76.90;;;;;;5126603;28;19956;-44
2023/09/19 06:06:02;;;;;;;;;;;21.60;76.90;;;;;;5124879;28;19908;-44
2023/09/19 06:08:28;;;;;;;;;;;21.60;76.90;;;;;;5126199;28;19923;-44
2023/09/19 06:10:54;;;;;;;;;;;21.60;76.90;;;;;;5126782;28;19922;-45
2023/09/19 06:13:20;;;;;;;;;;;21.60;76.90;;;;;;5126966;28;20329;-45
2023/09/19 06:15:47;;;;;;;;;;;21.60;76.90;;;;;;5126195;28;19912;-45
2023/09/19 06:18:19;;;;;;;;;;;21.60;77.00;;;;;;5126275;28;19933;-47
2023/09/19 06:20:48;;;;;;;;;;;21.60;77.10;;;;;;5126401;28;19941;-44
2023/09/19 06:23:14;;;;;;;;;;;21.60;77.00;;;;;;5126340;27;20327;-45
2023/09/19 06:25:40;;;;;;;;;;;21.60;77.10;;;;;;5126563;28;19908;-45
2023/09/19 06:28:08;;;;;;;;;;;21.60;77.10;;;;;;5126109;28;20425;-44
2023/09/19 06:30:34;;;;;;;;;;;21.50;77.10;;;;;;5125939;28;19942;-45
2023/09/19 06:33:00;;;;;;;;;;;21.50;77.10;;;;;;5126141;28;19919;-44
2023/09/19 06:35:26;;;;;;;;;;;21.50;77.10;;;;;;5126275;28;19908;-45
2023/09/19 06:37:52;;;;;;;;;;;21.50;77.10;;;;;;5158692;27;19911;-45
2023/09/19 06:40:19;;;;;;;;;;;21.50;77.10;;;;;;5125928;28;19907;-44
2023/09/19 06:42:45;;;;;;;;;;;21.50;77.10;;;;;;5126053;28;19916;-44
2023/09/19 06:45:13;;;;;;;;;;;21.50;77.20;;;;;;5125441;28;19923;-44
2023/09/19 06:47:39;;;;;;;;;;;21.50;77.30;;;;;;5125677;28;20292;-44
2023/09/19 06:50:06;;;;;;;;;;;21.50;77.20;;;;;;5125570;28;19911;-44
2023/09/19 06:52:33;;;;;;;;;;;21.50;77.20;;;;;;5126259;28;19907;-45
2023/09/19 06:54:58;;;;;;;;;;;21.40;77.10;;;;;;5125807;28;19904;-44
2023/09/19 06:57:24;;;;;;;;;;;21.40;77.20;;;;;;5125806;28;19970;-44
2023/09/19 06:59:50;;;;;;;;;;;21.40;77.20;;;;;;5126041;28;19929;-44
2023/09/19 07:02:16;;;;;;;;;;;21.40;77.20;;;;;;5118901;28;20368;-44
2023/09/19 07:04:42;;;;;;;;;;;21.40;77.30;;;;;;5126193;28;19960;-43
2023/09/19 07:07:08;;;;;;;;;;;21.40;77.30;;;;;;5124987;27;19915;-44
2023/09/19 07:09:34;;;;;;;;;;;21.40;77.30;;;;;;5125535;27;19919;-44
2023/09/19 07:12:00;;;;;;;;;;;21.40;77.30;;;;;;5118403;28;19912;-44
2023/09/19 07:14:27;;;;;;;;;;;21.30;77.20;;;;;;5122450;28;19908;-44
2023/09/19 07:16:52;;;;;;;;;;;21.30;77.30;;;;;;5123447;27;19915;-43
2023/09/19 07:19:18;;;;;;;;;;;21.30;77.30;;;;;;5124996;28;19911;-44
2023/09/19 07:21:44;;;;;;;;;;;21.30;77.30;;;;;;5124782;27;19912;-44
2023/09/19 07:24:10;;;;;;;;;;;21.30;77.30;;;;;;5120443;28;19907;-44
2023/09/19 07:26:36;;;;;;;;;;;21.30;77.30;;;;;;5124752;28;19915;-45
2023/09/19 07:29:03;;;;;;;;;;;21.30;77.30;;;;;;5124824;28;19929;-44
2023/09/19 07:31:30;;;;;;;;;;;21.30;77.40;;;;;;5125784;27;19982;-44
2023/09/19 07:33:56;;;;;;;;;;;21.20;77.40;;;;;;5125014;27;20312;-44
2023/09/19 07:36:24;;;;;;;;;;;21.20;77.40;;;;;;5121191;28;19933;-44
2023/09/19 07:38:50;;;;;;;;;;;21.20;77.40;;;;;;5124256;28;19998;-44
2023/09/19 07:41:16;;;;;;;;;;;21.20;77.40;;;;;;5124903;28;19912;-46
2023/09/19 07:43:43;;;;;;;;;;;21.20;77.40;;;;;;5125221;27;19912;-45
2023/09/19 07:46:09;;;;;;;;;;;21.20;77.40;;;;;;5124539;28;19911;-45
2023/09/19 07:48:36;;;;;;;;;;;21.20;77.40;;;;;;5124550;28;19916;-44
2023/09/19 07:51:03;;;;;;;;;;;21.20;77.40;;;;;;5124444;28;19913;-44
2023/09/19 07:53:30;;;;;;;;;;;21.20;77.50;;;;;;5124820;28;19933;-44
2023/09/19 07:56:22;;;;;;;;;;;21.10;77.50;;;;;;5124104;28;19919;-44
2023/09/19 07:58:48;;;;;;;;;;;21.10;77.50;;;;;;5120653;27;19911;-44
2023/09/19 08:01:16;;;;;;;;;;;21.10;77.50;;;;;;5124706;28;19911;-44
2023/09/19 08:03:43;;;;;;;;;;;21.10;77.50;;;;;;5124645;28;19903;-44
2023/09/19 08:06:08;;;;;;;;;;;21.10;77.50;;;;;;5124391;28;20653;-45
2023/09/19 08:08:37;;;;;;;;;;;21.10;77.60;;;;;;5124470;27;19922;-44
2023/09/19 08:11:21;;;;;;;;;;;21.10;77.60;;;;;;5124324;28;19915;-44
2023/09/19 08:13:48;;;;;;;;;;;21.10;77.60;;;;;;5124075;28;19904;-45
2023/09/19 08:16:22;;;;;;;;;;;21.00;77.50;;;;;;5117044;28;19912;-44
2023/09/19 08:18:48;;;;;;;;;;;21.00;77.50;;;;;;5123079;28;19931;-44
2023/09/19 08:21:15;;;;;;;;;;;21.00;77.50;;;;;;5124408;28;19912;-44
2023/09/19 08:23:41;;;;;;;;;;;21.00;77.60;;;;;;5124534;28;19955;-44
2023/09/19 08:26:08;;;;;;;;;;;21.00;77.50;;;;;;5123730;28;20010;-44
2023/09/19 08:28:34;;;;;;;;;;;21.00;77.60;;;;;;5124904;27;19919;-44
2023/09/19 08:31:06;;;;;;;;;;;21.00;77.60;;;;;;5124165;27;19949;-44
2023/09/19 08:33:32;;;;;;;;;;;21.00;77.60;;;;;;5124157;28;20279;-45
2023/09/19 08:35:58;;;;;;;;;;;21.00;77.60;;;;;;5123860;28;20003;-44
2023/09/19 08:38:29;;;;;;;;;;;21.00;77.60;;;;;;5125582;27;19911;-44
2023/09/19 08:41:01;;;;;;;;;;;20.90;77.60;;;;;;5125574;27;20276;-45
2023/09/19 08:43:27;;;;;;;;;;;20.90;77.60;;;;;;5123940;27;19914;-45
2023/09/19 08:46:13;;;;;;;;;;;20.90;77.60;;;;;;5123939;28;20356;-44
2023/09/19 08:48:41;;;;;;;;;;;20.90;77.60;;;;;;5113243;28;19920;-44
2023/09/19 08:51:07;;;;;;;;;;;20.90;77.70;;;;;;5123783;28;19908;-45
2023/09/19 08:53:51;;;;;;;;;;;20.90;77.70;;;;;;5123397;28;19914;-44
2023/09/19 08:56:17;;;;;;;;;;;20.90;77.70;;;;;;5123579;27;19915;-43
2023/09/19 08:58:48;;;;;;;;;;;20.90;77.70;;;;;;5126795;28;19915;-44
2023/09/19 09:01:15;;;;;;;;;;;20.90;77.80;;;;;;5123228;28;19912;-44
2023/09/19 09:03:41;;;;;;;;;;;20.90;77.80;;;;;;5123999;28;19908;-43
2023/09/19 09:06:07;;;;;;;;;;;20.80;77.70;;;;;;5103165;28;19915;-44
2023/09/19 09:08:33;;;;;;;;;;;20.80;77.80;;;;;;5123526;28;19919;-43
2023/09/19 09:10:59;;;;;;;;;;;20.80;77.70;;;;;;5124065;28;19938;-44
2023/09/19 09:13:26;;;;;;;;;;;20.80;77.70;;;;;;5123353;28;19933;-46
2023/09/19 09:15:53;;;;;;;;;;;20.80;77.80;;;;;;5123489;28;19918;-44
2023/09/19 09:18:20;;;;;;;;;;;20.80;77.80;;;;;;5123230;28;19911;-45
2023/09/19 09:20:46;;;;;;;;;;;20.80;77.80;;;;;;5123077;28;20029;-44
2023/09/19 09:23:13;;;;;;;;;;;20.80;77.80;;;;;;5121191;28;19934;-44
2023/09/19 09:25:56;;;;;;;;;;;20.80;77.90;;;;;;5123938;28;19916;-44
2023/09/19 09:28:22;;;;;;;;;;;20.80;77.90;;;;;;5119711;28;19920;-44
2023/09/19 09:30:48;;;;;;;;;;;20.70;77.90;;;;;;5121104;28;19912;-44
2023/09/19 09:33:16;;;;;;;;;;;20.80;77.90;;;;;;5123334;28;19911;-44
2023/09/19 09:35:56;;;;;;;;;;;20.70;77.90;;;;;;5123144;28;19912;-45
2023/09/19 09:38:27;;;;;;;;;;;20.70;77.90;;;;;;5123559;28;19908;-45
2023/09/19 09:41:01;;;;;;;;;;;20.70;77.90;;;;;;5136405;27;19977;-44
2023/09/19 09:43:34;;;;;;;;;;;20.70;77.90;;;;;;5122711;28;19974;-45
2023/09/19 09:49:14;;;;;;;;;;;20.70;77.90;;;;;;5115945;28;19975;-45
2023/09/19 09:51:39;;;;;;;;;;;20.60;77.90;;;;;;5118481;28;19975;-44
2023/09/19 09:54:12;;;;;;;;;;;20.60;77.90;;;;;;5122190;28;19916;-46
2023/09/19 09:57:00;;;;;;;;;;;20.70;78.00;;;;;;5123070;28;19919;-45
2023/09/19 09:59:49;;;;;;;;;;;20.70;78.00;;;;;;5123560;28;19950;-45
2023/09/19 10:02:20;;;;;;;;;;;20.60;77.90;;;;;;5122468;28;19934;-45
2023/09/19 10:04:51;;;;;;;;;;;20.60;78.00;;;;;;5122645;27;19915;-45
2023/09/19 10:07:27;;;;;;;;;;;20.60;78.00;;;;;;5118216;28;19916;-44
2023/09/19 10:09:59;;;;;;;;;;;20.60;78.00;;;;;;5126596;28;19907;-45
2023/09/19 10:12:27;;;;;;;;;;;20.60;78.00;;;;;;5126398;28;19912;-44
2023/09/19 10:14:53;;;;;;;;;;;20.60;78.00;;;;;;5126921;27;19960;-45
2023/09/19 10:17:20;;;;;;;;;;;20.60;78.00;;;;;;5125973;28;19940;-44
2023/09/19 10:19:49;;;;;;;;;;;20.50;78.00;;;;;;5126351;27;19912;-44
2023/09/19 10:22:16;;;;;;;;;;;20.60;78.00;;;;;;5126297;28;20123;-44
2023/09/19 10:24:42;;;;;;;;;;;20.50;78.00;;;;;;5126685;28;20061;-45
2023/09/19 10:27:11;;;;;;;;;;;20.50;78.00;;;;;;5125672;28;19919;-45
2023/09/19 10:29:38;;;;;;;;;;;20.50;78.00;;;;;;5126028;28;19940;-46
2023/09/19 10:32:05;;;;;;;;;;;20.50;78.00;;;;;;5126057;28;19912;-46
2023/09/19 10:34:41;;;;;;;;;;;20.50;78.10;;;;;;5126104;28;19907;-45
2023/09/19 10:37:09;;;;;;;;;;;20.50;78.10;;;;;;5126824;28;20005;-45
2023/09/19 10:39:35;;;;;;;;;;;20.50;78.10;;;;;;5126562;28;19912;-45
2023/09/19 10:42:05;;;;;;;;;;;20.50;78.10;;;;;;5124226;27;19907;-45
2023/09/19 10:44:32;;;;;;;;;;;20.50;78.10;;;;;;5125707;27;19913;-45
2023/09/19 10:46:58;;;;;;;;;;;20.50;78.20;;;;;;5125317;28;19922;-45
2023/09/19 10:49:24;;;;;;;;;;;20.40;78.10;;;;;;5142313;27;19908;-45
2023/09/19 10:51:51;;;;;;;;;;;20.40;78.20;;;;;;5125378;27;19931;-45
2023/09/19 10:54:17;;;;;;;;;;;20.40;78.10;;;;;;5118731;28;19946;-45
2023/09/19 10:56:46;;;;;;;;;;;20.40;78.10;;;;;;5117525;28;19915;-45
2023/09/19 10:59:13;;;;;;;;;;;20.40;78.20;;;;;;5125356;28;20506;-46
2023/09/19 11:01:56;;;;;;;;;;;20.40;78.20;;;;;;5125500;28;19912;-45
2023/09/19 11:04:35;;;;;;;;;;;20.40;78.20;;;;;;5118512;27;19961;-45
2023/09/19 11:07:16;;;;;;;;;;;20.40;78.20;;;;;;5116834;28;20257;-47
2023/09/19 11:09:57;;;;;;;;;;;20.30;78.20;;;;;;5125663;28;19956;-45
2023/09/19 11:12:30;;;;;;;;;;;20.30;78.20;;;;;;5125454;27;19908;-44
2023/09/19 11:14:56;;;;;;;;;;;20.30;78.20;;;;;;5125129;27;19922;-46
2023/09/19 11:17:22;;;;;;;;;;;20.30;78.20;;;;;;5124523;28;19911;-45
2023/09/19 11:20:51;;;;;;;;;;;20.30;78.30;;;;;;5125138;27;19911;-46
2023/09/19 11:23:02;;;;;;;;;;;20.30;78.30;;;;;;5112010;28;19943;-45
2023/09/19 11:25:32;;;;;;;;;;;20.30;78.30;;;;;;5125111;28;19917;-45
2023/09/19 11:28:08;;;;;;;;;;;20.30;78.40;;;;;;5118974;27;20010;-46
2023/09/19 11:30:38;;;;;;;;;;;20.30;78.40;;;;;;5125466;28;19912;-45
2023/09/19 11:33:31;;;;;;;;;;;20.30;78.40;;;;;;5125099;28;21930;-46
2023/09/19 11:36:14;;;;;;;;;;;20.30;78.40;;;;;;5124582;27;20026;-47
2023/09/19 11:39:08;;;;;;;;;;;20.20;78.30;;;;;;5124955;27;19930;-45
2023/09/19 11:41:37;;;;;;;;;;;20.20;78.30;;;;;;5124920;27;19911;-45
2023/09/19 11:44:06;;;;;;;;;;;20.30;78.40;;;;;;5124561;28;19912;-45
2023/09/19 11:46:51;;;;;;;;;;;20.20;78.40;;;;;;5124894;28;19908;-45
2023/09/19 11:49:20;;;;;;;;;;;20.20;78.40;;;;;;5124547;28;20284;-45
2023/09/19 11:51:48;;;;;;;;;;;20.20;78.40;;;;;;5124514;27;19915;-45
2023/09/19 11:54:24;;;;;;;;;;;20.20;78.40;;;;;;5123051;27;20006;-44
2023/09/19 11:56:50;;;;;;;;;;;20.20;78.40;;;;;;5123377;28;19916;-45
2023/09/19 11:59:28;;;;;;;;;;;20.20;78.50;;;;;;5124456;27;19929;-46
2023/09/19 12:01:59;;;;;;;;;;;20.10;78.40;;;;;;5124404;27;19911;-45
2023/09/19 12:04:38;;;;;;;;;;;20.10;78.40;;;;;;5124493;28;19919;-46
2023/09/19 12:07:12;;;;;;;;;;;20.20;78.50;;;;;;5123798;28;19930;-46
2023/09/19 12:09:39;;;;;;;;;;;20.10;78.40;;;;;;5124825;28;19943;-46
2023/09/19 12:12:05;;;;;;;;;;;20.10;78.40;;;;;;5123698;28;20387;-45
2023/09/19 12:14:31;;;;;;;;;;;20.10;78.40;;;;;;5124389;27;19911;-44
2023/09/19 12:16:58;;;;;;;;;;;20.10;78.50;;;;;;5123830;28;19912;-44
2023/09/19 12:19:24;;;;;;;;;;;20.10;78.40;;;;;;5118092;28;19922;-45
2023/09/19 12:21:57;;;;;;;;;;;20.10;78.50;;;;;;5124436;27;19915;-44
2023/09/19 12:24:29;;;;;;;;;;;20.10;78.50;;;;;;5118480;28;19918;-44
2023/09/19 12:27:04;;;;;;;;;;;20.10;78.50;;;;;;5122746;28;19919;-44
2023/09/19 12:29:31;;;;;;;;;;;20.10;78.50;;;;;;5123809;27;19947;-44
2023/09/19 12:32:03;;;;;;;;;;;20.10;78.50;;;;;;5123873;27;19907;-43
2023/09/19 12:34:35;;;;;;;;;;;20.00;78.50;;;;;;5139072;27;20438;-45
2023/09/19 12:37:21;;;;;;;;;;;20.00;79.20;;;;;;5123803;28;19966;-44
2023/09/19 12:39:51;;;;;;;;;;;20.00;78.60;;;;;;5126870;27;19931;-44
2023/09/19 12:42:17;;;;;;;;;;;20.00;78.60;;;;;;5116358;28;19946;-43
2023/09/19 12:44:47;;;;;;;;;;;20.00;78.60;;;;;;5123657;28;19908;-43
2023/09/19 12:47:15;;;;;;;;;;;20.00;78.70;;;;;;5122560;28;19918;-43
2023/09/19 12:50:01;;;;;;;;;;;20.00;78.60;;;;;;5123882;28;19908;-44
2023/09/19 12:52:31;;;;;;;;;;;20.00;78.70;;;;;;5124088;28;19915;-44
2023/09/19 12:54:57;;;;;;;;;;;20.00;78.60;;;;;;5138986;27;19912;-43
2023/09/19 12:57:26;;;;;;;;;;;20.00;78.60;;;;;;5104622;28;19924;-44
2023/09/19 12:59:54;;;;;;;;;;;20.00;78.70;;;;;;5102936;28;19983;-44
2023/09/19 13:02:23;;;;;;;;;;;20.00;78.80;;;;;;5119199;28;19908;-44
2023/09/19 13:04:56;;;;;;;;;;;20.00;78.70;;;;;;5102845;28;19957;-44
2023/09/19 13:07:43;;;;;;;;;;;20.00;78.80;;;;;;5096869;28;19946;-44
2023/09/19 13:10:15;;;;;;;;;;;20.00;78.80;;;;;;5103277;28;19919;-43
2023/09/19 13:12:43;;;;;;;;;;;20.00;78.80;;;;;;5103268;28;20464;-44
2023/09/19 13:15:16;;;;;;;;;;;20.00;78.80;;;;;;5104525;28;19912;-44
2023/09/19 13:17:45;;;;;;;;;;;20.00;78.90;;;;;;5107419;28;19908;-44
2023/09/19 13:20:24;;;;;;;;;;;19.90;78.80;;;;;;5118031;28;19908;-45
2023/09/19 13:23:11;;;;;;;;;;;19.90;78.80;;;;;;5099224;28;19936;-44
2023/09/19 13:25:38;;;;;;;;;;;19.90;78.90;;;;;;5094765;28;19919;-45
2023/09/19 13:28:05;;;;;;;;;;;19.90;78.90;;;;;;5107970;28;19924;-44
2023/09/19 13:30:31;;;;;;;;;;;19.90;79.00;;;;;;5095558;28;19915;-45
2023/09/19 13:33:09;;;;;;;;;;;19.90;79.00;;;;;;5098095;28;19912;-44
2023/09/19 13:35:38;;;;;;;;;;;19.90;79.00;;;;;;5096194;28;19916;-44
2023/09/19 13:38:04;;;;;;;;;;;19.90;79.00;;;;;;5093916;28;19919;-44
2023/09/19 13:40:30;;;;;;;;;;;19.90;79.00;;;;;;5104558;28;19951;-44
2023/09/19 13:42:56;;;;;;;;;;;19.90;79.00;;;;;;5106935;28;19915;-44
2023/09/19 13:45:24;;;;;;;;;;;20.00;79.10;;;;;;5106840;28;19907;-44
2023/09/19 13:47:50;;;;;;;;;;;19.90;79.10;;;;;;5106401;28;19916;-44
2023/09/19 13:50:18;;;;;;;;;;;19.90;79.10;;;;;;5106488;28;19915;-45
2023/09/19 13:52:44;;;;;;;;;;;20.00;79.20;;;;;;5107016;28;19930;-44
2023/09/19 13:55:10;;;;;;;;;;;20.00;79.20;;;;;;5106447;28;19908;-46
2023/09/19 13:57:36;;;;;;;;;;;20.00;79.20;;;;;;5106698;28;19920;-45
2023/09/19 14:00:02;;;;;;;;;;;19.90;79.20;;;;;;5106513;28;19908;-45
2023/09/19 14:02:28;;;;;;;;;;;20.00;79.30;;;;;;5106897;28;19975;-45
2023/09/19 14:04:54;;;;;;;;;;;20.00;79.30;;;;;;5105730;28;19912;-45
2023/09/19 14:07:20;;;;;;;;;;;20.00;79.20;;;;;;5106459;28;19915;-45
2023/09/19 14:09:46;;;;;;;;;;;20.00;79.30;;;;;;5088305;28;19958;-46
2023/09/19 14:12:12;;;;;;;;;;;20.00;79.30;;;;;;5106299;28;19911;-45
2023/09/19 14:14:38;;;;;;;;;;;20.00;79.30;;;;;;5105955;28;19915;-45
2023/09/19 14:17:04;;;;;;;;;;;20.00;79.30;;;;;;5105026;28;19916;-45
2023/09/19 14:19:30;;;;;;;;;;;20.00;79.30;;;;;;5105935;28;19933;-45
2023/09/19 14:21:56;;;;;;;;;;;20.00;80.00;;;;;;5105453;28;19926;-46
2023/09/19 14:24:22;;;;;;;;;;;20.00;79.30;;;;;;5106228;28;19908;-46
2023/09/19 14:26:49;;;;;;;;;;;20.00;79.30;;;;;;5105482;28;19958;-47
2023/09/19 14:29:15;;;;;;;;;;;20.00;79.30;;;;;;5105259;28;19911;-47
2023/09/19 14:31:41;;;;;;;;;;;20.00;79.30;;;;;;5105529;28;20591;-46
2023/09/19 14:34:07;;;;;;;;;;;20.00;79.30;;;;;;5105594;28;19911;-45